sensor_id;sensor_type;location;lat;lon;timestamp;pressure;altitude;pressure_sealevel;temperature;humidity
10712;BME280;5407;51.234;6.804;2023-01-31T00:01:38;101953.72;;;23.17;36.33
10712;BME280;5407;51.234;6.804;2023-01-31T00:04:07;101943.88;;;23.16;36.27
10712;BME280;5407;51.234;6.804;2023-01-31T00:06:37;101943.88;;;23.16;36.21
10712;BME280;5407;51.234;6.804;2023-01-31T00:09:05;101946.63;;;23.16;36.27
10712;BME280;5407;51.234;6.804;2023-01-31T00:11:34;101946.63;;;23.16;36.17
10712;BME280;5407;51.234;6.804;2023-01-31T00:14:02;101950.56;;;23.15;36.27
10712;BME280;5407;51.234;6.804;2023-01-31T00:16:29;101950.56;;;23.15;36.15
10712;BME280;5407;51.234;6.804;2023-01-31T00:18:56;101950.56;;;23.15;36.15
10712;BME280;5407;51.234;6.804;2023-01-31T00:21:25;101949.00;;;23.14;36.10
10712;BME280;5407;51.234;6.804;2023-01-31T00:23:52;101952.53;;;23.14;36.12
10712;BME280;5407;51.234;6.804;2023-01-31T00:26:21;101950.94;;;23.13;36.09
10712;BME280;5407;51.234;6.804;2023-01-31T00:28:51;101965.91;;;23.12;36.10
10712;BME280;5407;51.234;6.804;2023-01-31T00:31:19;101964.72;;;23.13;35.92
10712;BME280;5407;51.234;6.804;2023-01-31T00:33:48;101967.88;;;23.12;36.10
10712;BME280;5407;51.234;6.804;2023-01-31T00:36:17;101963.16;;;23.12;36.12
10712;BME280;5407;51.234;6.804;2023-01-31T00:38:47;101956.88;;;23.12;35.96
10712;BME280;5407;51.234;6.804;2023-01-31T00:41:14;101958.44;;;23.13;36.05
10712;BME280;5407;51.234;6.804;2023-01-31T00:43:41;101957.63;;;23.12;36.08
10712;BME280;5407;51.234;6.804;2023-01-31T00:46:10;101963.16;;;23.12;35.96
10712;BME280;5407;51.234;6.804;2023-01-31T00:48:37;101961.97;;;23.13;36.01
10712;BME280;5407;51.234;6.804;2023-01-31T00:51:05;101959.22;;;23.13;36.01
10712;BME280;5407;51.234;6.804;2023-01-31T00:53:31;101952.94;;;23.13;35.80
10712;BME280;5407;51.234;6.804;2023-01-31T00:56:04;101954.50;;;23.14;35.84
10712;BME280;5407;51.234;6.804;2023-01-31T00:58:31;101955.28;;;23.14;35.80
10712;BME280;5407;51.234;6.804;2023-01-31T01:01:05;101962.75;;;23.14;35.79
10712;BME280;5407;51.234;6.804;2023-01-31T01:03:34;101963.16;;;23.12;35.76
10712;BME280;5407;51.234;6.804;2023-01-31T01:06:01;101962.75;;;23.14;35.79
10712;BME280;5407;51.234;6.804;2023-01-31T01:08:29;101963.16;;;23.16;35.73
10712;BME280;5407;51.234;6.804;2023-01-31T01:10:56;101960.00;;;23.14;35.76
10712;BME280;5407;51.234;6.804;2023-01-31T01:13:29;101955.69;;;23.13;35.70
10712;BME280;5407;51.234;6.804;2023-01-31T01:15:56;101956.88;;;23.12;35.75
10712;BME280;5407;51.234;6.804;2023-01-31T01:18:23;101962.38;;;23.12;35.72
10712;BME280;5407;51.234;6.804;2023-01-31T01:20:51;101962.38;;;23.12;35.71
10712;BME280;5407;51.234;6.804;2023-01-31T01:23:19;101960.81;;;23.11;35.63
10712;BME280;5407;51.234;6.804;2023-01-31T01:25:46;101960.00;;;23.10;35.67
10712;BME280;5407;51.234;6.804;2023-01-31T01:28:13;101970.25;;;23.10;35.79
10712;BME280;5407;51.234;6.804;2023-01-31T01:30:39;101967.06;;;23.08;35.58
10712;BME280;5407;51.234;6.804;2023-01-31T01:33:06;101952.50;;;23.07;35.75
10712;BME280;5407;51.234;6.804;2023-01-31T01:35:35;101956.06;;;23.08;35.64
10712;BME280;5407;51.234;6.804;2023-01-31T01:38:04;101961.56;;;23.08;35.74
10712;BME280;5407;51.234;6.804;2023-01-31T01:40:34;101956.06;;;23.08;35.56
10712;BME280;5407;51.234;6.804;2023-01-31T01:43:01;101954.50;;;23.07;35.70
10712;BME280;5407;51.234;6.804;2023-01-31T01:45:28;101946.59;;;23.05;35.64
10712;BME280;5407;51.234;6.804;2023-01-31T01:47:58;101954.50;;;23.07;35.68
10712;BME280;5407;51.234;6.804;2023-01-31T01:50:28;101954.09;;;23.05;35.70
10712;BME280;5407;51.234;6.804;2023-01-31T01:53:00;101941.91;;;23.06;35.58
10712;BME280;5407;51.234;6.804;2023-01-31T01:55:32;101934.81;;;23.05;35.56
10712;BME280;5407;51.234;6.804;2023-01-31T01:58:05;101943.09;;;23.05;35.72
10712;BME280;5407;51.234;6.804;2023-01-31T02:00:34;101947.78;;;23.04;35.54
10712;BME280;5407;51.234;6.804;2023-01-31T02:03:04;101945.03;;;23.04;35.58
10712;BME280;5407;51.234;6.804;2023-01-31T02:05:38;101945.84;;;23.05;35.60
10712;BME280;5407;51.234;6.804;2023-01-31T02:08:09;101945.84;;;23.05;35.70
10712;BME280;5407;51.234;6.804;2023-01-31T02:10:43;101951.34;;;23.05;35.55
10712;BME280;5407;51.234;6.804;2023-01-31T02:13:13;101951.34;;;23.05;35.55
10712;BME280;5407;51.234;6.804;2023-01-31T02:15:43;101947.78;;;23.04;35.65
10712;BME280;5407;51.234;6.804;2023-01-31T02:18:10;101950.53;;;23.04;35.67
10712;BME280;5407;51.234;6.804;2023-01-31T02:20:55;101945.84;;;23.05;35.59
10712;BME280;5407;51.234;6.804;2023-01-31T02:26:47;101948.59;;;23.05;35.58
10712;BME280;5407;51.234;6.804;2023-01-31T02:29:38;101948.59;;;23.05;35.52
10712;BME280;5407;51.234;6.804;2023-01-31T02:32:35;101953.69;;;23.06;35.44
10712;BME280;5407;51.234;6.804;2023-01-31T02:35:11;101957.63;;;23.05;35.39
10712;BME280;5407;51.234;6.804;2023-01-31T02:37:56;101957.63;;;23.05;35.53
10712;BME280;5407;51.234;6.804;2023-01-31T02:40:34;101948.59;;;23.05;35.52
10712;BME280;5407;51.234;6.804;2023-01-31T02:43:10;101955.28;;;23.04;35.41
10712;BME280;5407;51.234;6.804;2023-01-31T02:45:48;101959.22;;;23.03;35.47
10712;BME280;5407;51.234;6.804;2023-01-31T02:48:23;101953.31;;;23.01;35.42
10712;BME280;5407;51.234;6.804;2023-01-31T02:50:58;101954.09;;;23.01;35.47
10712;BME280;5407;51.234;6.804;2023-01-31T02:53:31;101960.00;;;23.00;35.42
10712;BME280;5407;51.234;6.804;2023-01-31T02:56:04;101955.69;;;22.99;35.47
10712;BME280;5407;51.234;6.804;2023-01-31T02:58:48;101953.69;;;22.99;35.41
10712;BME280;5407;51.234;6.804;2023-01-31T03:01:20;101952.94;;;22.99;35.38
10712;BME280;5407;51.234;6.804;2023-01-31T03:03:51;101947.41;;;22.99;35.43
10712;BME280;5407;51.234;6.804;2023-01-31T03:06:43;101952.94;;;22.99;35.42
10712;BME280;5407;51.234;6.804;2023-01-31T03:09:23;101950.19;;;22.99;35.30
10712;BME280;5407;51.234;6.804;2023-01-31T03:12:03;101945.06;;;22.97;35.35
10712;BME280;5407;51.234;6.804;2023-01-31T03:14:39;101934.84;;;22.98;35.28
10712;BME280;5407;51.234;6.804;2023-01-31T03:17:12;101930.53;;;22.97;35.40
10712;BME280;5407;51.234;6.804;2023-01-31T03:20:05;101931.66;;;22.96;35.25
10712;BME280;5407;51.234;6.804;2023-01-31T03:22:37;101923.41;;;22.96;35.35
10712;BME280;5407;51.234;6.804;2023-01-31T03:25:06;101915.16;;;22.96;35.29
10712;BME280;5407;51.234;6.804;2023-01-31T03:27:36;101915.16;;;22.96;35.40
10712;BME280;5407;51.234;6.804;2023-01-31T03:30:11;101917.13;;;22.95;35.32
10712;BME280;5407;51.234;6.804;2023-01-31T03:32:44;101916.34;;;22.95;35.34
10712;BME280;5407;51.234;6.804;2023-01-31T03:35:19;101912.41;;;22.96;35.22
10712;BME280;5407;51.234;6.804;2023-01-31T03:37:49;101911.63;;;22.99;35.24
10712;BME280;5407;51.234;6.804;2023-01-31T03:40:25;101910.47;;;23.00;35.27
10712;BME280;5407;51.234;6.804;2023-01-31T03:42:56;101913.97;;;23.00;35.64
10712;BME280;5407;51.234;6.804;2023-01-31T03:45:29;101917.53;;;23.01;35.47
10712;BME280;5407;51.234;6.804;2023-01-31T03:48:00;101904.16;;;22.99;35.43
10712;BME280;5407;51.234;6.804;2023-01-31T03:50:38;101911.63;;;22.99;35.46
10712;BME280;5407;51.234;6.804;2023-01-31T03:53:09;101916.34;;;22.98;35.49
10712;BME280;5407;51.234;6.804;2023-01-31T03:55:42;101922.25;;;22.97;35.48
10712;BME280;5407;51.234;6.804;2023-01-31T03:58:11;101912.03;;;22.97;35.49
10712;BME280;5407;51.234;6.804;2023-01-31T04:00:42;101905.75;;;22.97;35.56
10712;BME280;5407;51.234;6.804;2023-01-31T04:03:14;101906.13;;;22.92;35.54
10712;BME280;5407;51.234;6.804;2023-01-31T04:05:43;101905.75;;;22.97;35.79
10712;BME280;5407;51.234;6.804;2023-01-31T04:08:11;101900.25;;;22.97;36.01
10712;BME280;5407;51.234;6.804;2023-01-31T04:10:40;101897.88;;;22.99;36.03
10712;BME280;5407;51.234;6.804;2023-01-31T04:13:07;101896.69;;;23.00;35.92
10712;BME280;5407;51.234;6.804;2023-01-31T04:15:34;101891.56;;;23.02;35.98
10712;BME280;5407;51.234;6.804;2023-01-31T04:18:01;101889.22;;;23.04;35.92
10712;BME280;5407;51.234;6.804;2023-01-31T04:20:28;101888.41;;;23.03;35.96
10712;BME280;5407;51.234;6.804;2023-01-31T04:22:56;101889.22;;;23.04;35.73
10712;BME280;5407;51.234;6.804;2023-01-31T04:25:24;101886.06;;;23.02;35.80
10712;BME280;5407;51.234;6.804;2023-01-31T04:27:51;101889.97;;;23.04;35.67
10712;BME280;5407;51.234;6.804;2023-01-31T04:30:17;101884.47;;;23.04;35.69
10712;BME280;5407;51.234;6.804;2023-01-31T04:32:44;101888.41;;;23.03;35.51
10712;BME280;5407;51.234;6.804;2023-01-31T04:35:11;101886.06;;;23.02;35.62
10712;BME280;5407;51.234;6.804;2023-01-31T04:37:38;101884.50;;;23.01;35.73
10712;BME280;5407;51.234;6.804;2023-01-31T04:40:08;101880.19;;;23.00;35.80
10712;BME280;5407;51.234;6.804;2023-01-31T04:42:35;101879.00;;;23.01;35.66
10712;BME280;5407;51.234;6.804;2023-01-31T04:45:03;101885.69;;;23.00;35.80
10712;BME280;5407;51.234;6.804;2023-01-31T04:47:30;101887.63;;;22.99;35.73
10712;BME280;5407;51.234;6.804;2023-01-31T04:49:57;101878.22;;;22.97;35.68
10712;BME280;5407;51.234;6.804;2023-01-31T04:52:23;101872.72;;;22.97;35.59
10712;BME280;5407;51.234;6.804;2023-01-31T04:54:50;101871.91;;;22.96;35.54
10712;BME280;5407;51.234;6.804;2023-01-31T04:57:18;101871.91;;;22.96;35.59
10712;BME280;5407;51.234;6.804;2023-01-31T04:59:45;101877.41;;;22.96;35.57
10712;BME280;5407;51.234;6.804;2023-01-31T05:02:15;101877.41;;;22.96;35.66
10712;BME280;5407;51.234;6.804;2023-01-31T05:04:42;101871.13;;;22.96;35.58
10712;BME280;5407;51.234;6.804;2023-01-31T05:07:09;101868.38;;;22.96;35.36
10712;BME280;5407;51.234;6.804;2023-01-31T05:09:36;101876.63;;;22.96;35.49
10712;BME280;5407;51.234;6.804;2023-01-31T05:12:03;101875.84;;;22.99;35.51
10712;BME280;5407;51.234;6.804;2023-01-31T05:14:32;101865.63;;;22.96;35.54
10712;BME280;5407;51.234;6.804;2023-01-31T05:16:59;101856.19;;;22.97;35.44
10712;BME280;5407;51.234;6.804;2023-01-31T05:19:27;101860.53;;;22.98;35.45
10712;BME280;5407;51.234;6.804;2023-01-31T05:21:53;101859.34;;;22.99;35.42
10712;BME280;5407;51.234;6.804;2023-01-31T05:24:24;101852.28;;;22.98;35.44
10712;BME280;5407;51.234;6.804;2023-01-31T05:26:51;101856.19;;;23.00;35.40
10712;BME280;5407;51.234;6.804;2023-01-31T05:29:23;101851.09;;;22.99;35.32
10712;BME280;5407;51.234;6.804;2023-01-31T05:31:52;101851.47;;;23.01;35.29
10712;BME280;5407;51.234;6.804;2023-01-31T05:34:19;101856.19;;;23.00;35.38
10712;BME280;5407;51.234;6.804;2023-01-31T05:36:47;101860.13;;;23.03;35.40
10712;BME280;5407;51.234;6.804;2023-01-31T05:39:13;101864.06;;;23.02;35.22
10712;BME280;5407;51.234;6.804;2023-01-31T05:41:40;101853.03;;;23.02;35.34
10712;BME280;5407;51.234;6.804;2023-01-31T05:44:07;101848.72;;;23.01;35.40
10712;BME280;5407;51.234;6.804;2023-01-31T05:46:35;101849.91;;;23.00;35.33
10712;BME280;5407;51.234;6.804;2023-01-31T05:49:03;101839.69;;;22.97;35.36
10712;BME280;5407;51.234;6.804;2023-01-31T05:51:30;101836.94;;;22.97;35.44
10712;BME280;5407;51.234;6.804;2023-01-31T05:53:57;101839.69;;;22.97;35.38
10712;BME280;5407;51.234;6.804;2023-01-31T05:56:24;101835.34;;;22.96;35.35
10712;BME280;5407;51.234;6.804;2023-01-31T05:58:51;101839.28;;;22.95;35.46
10712;BME280;5407;51.234;6.804;2023-01-31T06:01:20;101828.69;;;22.93;35.44
10712;BME280;5407;51.234;6.804;2023-01-31T06:03:47;101827.88;;;22.93;35.43
10712;BME280;5407;51.234;6.804;2023-01-31T06:06:15;101820.03;;;22.91;35.29
10712;BME280;5407;51.234;6.804;2023-01-31T06:08:42;101824.75;;;22.91;35.46
10712;BME280;5407;51.234;6.804;2023-01-31T06:11:11;101808.22;;;22.91;35.19
10712;BME280;5407;51.234;6.804;2023-01-31T06:13:39;101805.88;;;22.89;35.42
10712;BME280;5407;51.234;6.804;2023-01-31T06:16:08;101808.22;;;22.91;35.45
10712;BME280;5407;51.234;6.804;2023-01-31T06:18:35;101800.38;;;22.89;35.31
10712;BME280;5407;51.234;6.804;2023-01-31T06:21:02;101806.66;;;22.90;35.42
10712;BME280;5407;51.234;6.804;2023-01-31T06:23:30;101806.66;;;22.90;35.33
10712;BME280;5407;51.234;6.804;2023-01-31T06:25:59;101814.91;;;22.90;35.36
10712;BME280;5407;51.234;6.804;2023-01-31T06:28:26;101805.09;;;22.89;35.47
10712;BME280;5407;51.234;6.804;2023-01-31T06:30:52;101816.09;;;22.89;35.36
10712;BME280;5407;51.234;6.804;2023-01-31T06:33:19;101815.31;;;22.88;35.34
10712;BME280;5407;51.234;6.804;2023-01-31T06:35:46;101827.09;;;22.89;35.31
10712;BME280;5407;51.234;6.804;2023-01-31T06:38:13;101828.66;;;22.90;35.26
10712;BME280;5407;51.234;6.804;2023-01-31T06:40:42;101827.09;;;22.89;35.34
10712;BME280;5407;51.234;6.804;2023-01-31T06:43:08;101838.09;;;22.89;35.19
10712;BME280;5407;51.234;6.804;2023-01-31T06:45:35;101844.00;;;22.91;35.19
10712;BME280;5407;51.234;6.804;2023-01-31T06:48:03;101835.75;;;22.91;35.35
10712;BME280;5407;51.234;6.804;2023-01-31T06:50:30;101835.75;;;22.91;35.13
10712;BME280;5407;51.234;6.804;2023-01-31T06:52:57;101829.06;;;22.92;35.13
10712;BME280;5407;51.234;6.804;2023-01-31T06:55:24;101831.03;;;22.91;35.24
10712;BME280;5407;51.234;6.804;2023-01-31T06:57:52;101837.72;;;22.90;35.26
10712;BME280;5407;51.234;6.804;2023-01-31T07:00:20;101841.25;;;22.91;35.10
10712;BME280;5407;51.234;6.804;2023-01-31T07:02:49;101840.84;;;22.89;35.04
10712;BME280;5407;51.234;6.804;2023-01-31T07:05:16;101842.03;;;22.88;35.06
10712;BME280;5407;51.234;6.804;2023-01-31T07:07:43;101840.84;;;22.89;35.07
10712;BME280;5407;51.234;6.804;2023-01-31T07:10:11;101833.41;;;22.89;35.15
10712;BME280;5407;51.234;6.804;2023-01-31T07:12:38;101835.34;;;22.89;35.10
10712;BME280;5407;51.234;6.804;2023-01-31T07:15:08;101842.03;;;22.88;35.02
10712;BME280;5407;51.234;6.804;2023-01-31T07:17:35;101831.03;;;22.88;35.09
10712;BME280;5407;51.234;6.804;2023-01-31T07:20:02;101834.97;;;22.87;35.12
10712;BME280;5407;51.234;6.804;2023-01-31T07:22:29;101843.22;;;22.87;35.01
10712;BME280;5407;51.234;6.804;2023-01-31T07:24:56;101831.44;;;22.86;35.12
10712;BME280;5407;51.234;6.804;2023-01-31T07:27:23;101818.47;;;22.87;34.92
10712;BME280;5407;51.234;6.804;2023-01-31T07:29:49;101811.38;;;22.86;35.02
10712;BME280;5407;51.234;6.804;2023-01-31T07:32:18;101800.38;;;22.86;34.81
10712;BME280;5407;51.234;6.804;2023-01-31T07:34:44;101790.16;;;22.86;34.76
10712;BME280;5407;51.234;6.804;2023-01-31T07:37:11;101804.69;;;22.87;34.90
10712;BME280;5407;51.234;6.804;2023-01-31T07:39:38;101805.13;;;22.85;34.92
10712;BME280;5407;51.234;6.804;2023-01-31T07:42:05;101807.44;;;22.87;34.93
10712;BME280;5407;51.234;6.804;2023-01-31T07:44:32;101809.03;;;22.88;34.92
10712;BME280;5407;51.234;6.804;2023-01-31T07:46:59;101813.75;;;22.87;34.79
10712;BME280;5407;51.234;6.804;2023-01-31T07:49:27;101812.19;;;22.86;34.89
10712;BME280;5407;51.234;6.804;2023-01-31T07:51:54;101809.44;;;22.86;34.92
10712;BME280;5407;51.234;6.804;2023-01-31T07:54:21;101807.06;;;22.85;34.73
10712;BME280;5407;51.234;6.804;2023-01-31T07:56:47;101817.69;;;22.86;34.94
10712;BME280;5407;51.234;6.804;2023-01-31T07:59:14;101805.91;;;22.82;34.45
10712;BME280;5407;51.234;6.804;2023-01-31T08:01:42;101806.69;;;22.86;34.88
10712;BME280;5407;51.234;6.804;2023-01-31T08:04:27;101814.53;;;22.88;34.80
10712;BME280;5407;51.234;6.804;2023-01-31T08:06:55;101811.38;;;22.86;34.62
10712;BME280;5407;51.234;6.804;2023-01-31T08:09:24;101801.94;;;22.87;34.76
10712;BME280;5407;51.234;6.804;2023-01-31T08:11:50;101799.19;;;22.87;34.86
10712;BME280;5407;51.234;6.804;2023-01-31T08:14:17;101792.13;;;22.86;34.75
10712;BME280;5407;51.234;6.804;2023-01-31T08:16:48;101801.56;;;22.85;34.62
10712;BME280;5407;51.234;6.804;2023-01-31T08:19:14;101796.06;;;22.88;35.01
10712;BME280;5407;51.234;6.804;2023-01-31T08:21:43;101783.88;;;22.89;34.95
10712;BME280;5407;51.234;6.804;2023-01-31T08:24:10;101784.63;;;22.90;34.84
10712;BME280;5407;51.234;6.804;2023-01-31T08:26:36;101786.22;;;22.91;34.92
10712;BME280;5407;51.234;6.804;2023-01-31T08:29:03;101778.75;;;22.91;34.75
10712;BME280;5407;51.234;6.804;2023-01-31T08:31:31;101772.84;;;22.93;34.81
10712;BME280;5407;51.234;6.804;2023-01-31T08:33:57;101772.06;;;22.92;34.66
10712;BME280;5407;51.234;6.804;2023-01-31T08:36:26;101774.41;;;22.94;34.64
10712;BME280;5407;51.234;6.804;2023-01-31T08:38:55;101767.31;;;22.93;34.69
10712;BME280;5407;51.234;6.804;2023-01-31T08:41:23;101770.88;;;22.93;34.41
10712;BME280;5407;51.234;6.804;2023-01-31T08:43:51;101763.41;;;22.94;34.65
10712;BME280;5407;51.234;6.804;2023-01-31T08:46:20;101773.22;;;22.95;34.65
10712;BME280;5407;51.234;6.804;2023-01-31T08:48:47;101785.78;;;22.96;34.61
10712;BME280;5407;51.234;6.804;2023-01-31T08:51:14;101777.53;;;22.96;34.65
10712;BME280;5407;51.234;6.804;2023-01-31T08:53:42;101776.38;;;22.93;34.51
10712;BME280;5407;51.234;6.804;2023-01-31T08:56:11;101778.72;;;22.95;34.66
10712;BME280;5407;51.234;6.804;2023-01-31T08:58:40;101773.63;;;22.97;34.57
10712;BME280;5407;51.234;6.804;2023-01-31T09:01:08;101761.03;;;22.96;34.69
10712;BME280;5407;51.234;6.804;2023-01-31T09:03:36;101764.56;;;22.96;34.65
10712;BME280;5407;51.234;6.804;2023-01-31T09:06:04;101761.81;;;22.96;34.57
10712;BME280;5407;51.234;6.804;2023-01-31T09:08:32;101741.38;;;22.97;34.64
10712;BME280;5407;51.234;6.804;2023-01-31T09:10:59;101737.84;;;22.97;34.61
10712;BME280;5407;51.234;6.804;2023-01-31T09:13:29;101734.31;;;22.96;34.60
10712;BME280;5407;51.234;6.804;2023-01-31T09:15:57;101718.59;;;22.97;34.55
10712;BME280;5407;51.234;6.804;2023-01-31T09:18:24;101722.50;;;22.96;34.66
10712;BME280;5407;51.234;6.804;2023-01-31T09:20:51;101727.22;;;22.99;34.62
10712;BME280;5407;51.234;6.804;2023-01-31T09:23:18;101718.59;;;22.97;34.65
10712;BME280;5407;51.234;6.804;2023-01-31T09:25:51;101719.34;;;23.01;34.57
10712;BME280;5407;51.234;6.804;2023-01-31T09:28:18;101726.81;;;23.00;34.56
10712;BME280;5407;51.234;6.804;2023-01-31T09:30:46;101719.34;;;23.01;34.64
10712;BME280;5407;51.234;6.804;2023-01-31T09:33:13;101718.16;;;23.02;34.59
10712;BME280;5407;51.234;6.804;2023-01-31T09:35:40;101730.34;;;23.04;34.53
10712;BME280;5407;51.234;6.804;2023-01-31T09:38:07;101713.06;;;23.04;34.54
10712;BME280;5407;51.234;6.804;2023-01-31T09:40:38;101715.41;;;23.02;34.52
10712;BME280;5407;51.234;6.804;2023-01-31T09:43:07;101704.41;;;23.02;34.63
10712;BME280;5407;51.234;6.804;2023-01-31T09:45:39;101711.47;;;23.03;34.54
10712;BME280;5407;51.234;6.804;2023-01-31T09:48:15;101717.00;;;23.03;34.55
10712;BME280;5407;51.234;6.804;2023-01-31T09:50:46;101709.91;;;23.02;34.44
10712;BME280;5407;51.234;6.804;2023-01-31T09:53:17;101713.84;;;23.01;34.40
10712;BME280;5407;51.234;6.804;2023-01-31T09:55:53;101722.50;;;23.03;34.39
10712;BME280;5407;51.234;6.804;2023-01-31T09:58:29;101707.53;;;23.04;34.35
10712;BME280;5407;51.234;6.804;2023-01-31T10:01:06;101710.69;;;23.06;34.15
10712;BME280;5407;51.234;6.804;2023-01-31T10:03:47;101703.59;;;23.05;34.32
10712;BME280;5407;51.234;6.804;2023-01-31T10:06:21;101709.91;;;23.02;34.51
10712;BME280;5407;51.234;6.804;2023-01-31T10:08:52;101703.59;;;23.01;34.62
10712;BME280;5407;51.234;6.804;2023-01-31T10:11:28;101704.41;;;23.02;34.53
10712;BME280;5407;51.234;6.804;2023-01-31T10:14:00;101696.91;;;23.06;35.05
10712;BME280;5407;51.234;6.804;2023-01-31T10:16:34;101684.72;;;23.07;34.86
10712;BME280;5407;51.234;6.804;2023-01-31T10:19:08;101689.44;;;23.10;34.99
10712;BME280;5407;51.234;6.804;2023-01-31T10:21:39;101684.72;;;23.10;35.30
10712;BME280;5407;51.234;6.804;2023-01-31T10:24:12;101678.44;;;23.10;35.29
10712;BME280;5407;51.234;6.804;2023-01-31T10:26:43;101675.28;;;23.08;35.22
10712;BME280;5407;51.234;6.804;2023-01-31T10:29:15;101669.00;;;23.11;35.51
10712;BME280;5407;51.234;6.804;2023-01-31T10:31:45;101652.84;;;23.13;36.00
10712;BME280;5407;51.234;6.804;2023-01-31T10:34:18;101646.16;;;23.14;36.29
10712;BME280;5407;51.234;6.804;2023-01-31T10:36:51;101640.66;;;23.14;36.21
10712;BME280;5407;51.234;6.804;2023-01-31T10:39:21;101651.66;;;23.14;36.19
10712;BME280;5407;51.234;6.804;2023-01-31T10:42:02;101646.13;;;23.17;36.00
10712;BME280;5407;51.234;6.804;2023-01-31T10:44:39;101646.53;;;23.16;35.62
10712;BME280;5407;51.234;6.804;2023-01-31T10:47:11;101642.59;;;23.17;35.60
10712;BME280;5407;51.234;6.804;2023-01-31T10:49:40;101633.16;;;23.18;35.63
10712;BME280;5407;51.234;6.804;2023-01-31T10:52:39;101628.84;;;23.17;35.28
10712;BME280;5407;51.234;6.804;2023-01-31T10:55:25;101635.91;;;23.18;35.36
10712;BME280;5407;51.234;6.804;2023-01-31T10:57:56;101632.78;;;23.16;35.19
10712;BME280;5407;51.234;6.804;2023-01-31T11:00:27;101619.78;;;23.16;35.21
10712;BME280;5407;51.234;6.804;2023-01-31T11:02:56;101627.28;;;23.16;35.19
10712;BME280;5407;51.234;6.804;2023-01-31T11:05:26;101615.47;;;23.15;34.95
10712;BME280;5407;51.234;6.804;2023-01-31T11:07:55;101621.78;;;23.12;35.19
10712;BME280;5407;51.234;6.804;2023-01-31T11:10:25;101628.09;;;23.13;35.09
10712;BME280;5407;51.234;6.804;2023-01-31T11:12:53;101619.44;;;23.11;35.18
10712;BME280;5407;51.234;6.804;2023-01-31T11:15:23;101625.31;;;23.13;35.11
10712;BME280;5407;51.234;6.804;2023-01-31T11:17:51;101632.41;;;23.14;34.94
10712;BME280;5407;51.234;6.804;2023-01-31T11:20:22;101624.16;;;23.14;34.87
10712;BME280;5407;51.234;6.804;2023-01-31T11:22:53;101615.50;;;23.12;34.84
10712;BME280;5407;51.234;6.804;2023-01-31T11:25:23;101617.44;;;23.15;34.64
10712;BME280;5407;51.234;6.804;2023-01-31T11:27:53;101611.56;;;23.13;34.88
10712;BME280;5407;51.234;6.804;2023-01-31T11:30:25;101606.81;;;23.13;34.66
10712;BME280;5407;51.234;6.804;2023-01-31T11:32:53;101579.31;;;23.13;34.75
10712;BME280;5407;51.234;6.804;2023-01-31T11:35:23;101588.34;;;23.14;34.85
10712;BME280;5407;51.234;6.804;2023-01-31T11:37:54;101589.53;;;23.13;34.91
10712;BME280;5407;51.234;6.804;2023-01-31T11:40:27;101580.09;;;23.14;34.68
10712;BME280;5407;51.234;6.804;2023-01-31T11:42:57;101590.31;;;23.13;34.88
10712;BME280;5407;51.234;6.804;2023-01-31T11:45:26;101584.03;;;23.13;34.75
10712;BME280;5407;51.234;6.804;2023-01-31T11:47:56;101588.72;;;23.16;34.96
10712;BME280;5407;51.234;6.804;2023-01-31T11:50:26;101583.22;;;23.16;35.21
10712;BME280;5407;51.234;6.804;2023-01-31T11:52:59;101574.97;;;23.16;35.20
10712;BME280;5407;51.234;6.804;2023-01-31T11:55:34;101560.00;;;23.17;35.21
10712;BME280;5407;51.234;6.804;2023-01-31T11:58:08;101563.97;;;23.16;35.29
10712;BME280;5407;51.234;6.804;2023-01-31T12:00:51;101540.75;;;23.17;35.21
10712;BME280;5407;51.234;6.804;2023-01-31T12:03:19;101547.00;;;23.17;35.20
10712;BME280;5407;51.234;6.804;2023-01-31T12:05:50;101539.13;;;23.19;35.24
10712;BME280;5407;51.234;6.804;2023-01-31T12:08:34;101541.13;;;23.15;35.08
10712;BME280;5407;51.234;6.804;2023-01-31T12:11:04;101547.81;;;23.18;35.07
10712;BME280;5407;51.234;6.804;2023-01-31T12:13:44;101553.34;;;23.14;35.15
10712;BME280;5407;51.234;6.804;2023-01-31T12:16:12;101549.41;;;23.15;34.95
10712;BME280;5407;51.234;6.804;2023-01-31T12:18:56;101556.88;;;23.15;35.13
10712;BME280;5407;51.234;6.804;2023-01-31T12:21:37;101556.88;;;23.15;35.08
10712;BME280;5407;51.234;6.804;2023-01-31T12:24:17;101551.78;;;23.13;34.98
10712;BME280;5407;51.234;6.804;2023-01-31T12:26:50;101549.44;;;23.12;34.97
10712;BME280;5407;51.234;6.804;2023-01-31T12:29:30;101552.56;;;23.14;35.11
10712;BME280;5407;51.234;6.804;2023-01-31T12:32:16;101548.25;;;23.13;35.06
10712;BME280;5407;51.234;6.804;2023-01-31T12:35:03;101552.19;;;23.12;35.14
10712;BME280;5407;51.234;6.804;2023-01-31T12:37:45;101545.50;;;23.13;35.05
10712;BME280;5407;51.234;6.804;2023-01-31T12:40:30;101534.50;;;23.13;35.05
10712;BME280;5407;51.234;6.804;2023-01-31T12:43:01;101543.13;;;23.11;35.07
10712;BME280;5407;51.234;6.804;2023-01-31T12:45:57;101531.72;;;23.13;35.05
10712;BME280;5407;51.234;6.804;2023-01-31T12:48:49;101533.28;;;23.14;35.08
10712;BME280;5407;51.234;6.804;2023-01-31T12:51:30;101520.72;;;23.13;35.03
10712;BME280;5407;51.234;6.804;2023-01-31T12:54:33;101518.34;;;23.15;34.82
10712;BME280;5407;51.234;6.804;2023-01-31T12:57:17;101512.84;;;23.15;34.93
10712;BME280;5407;51.234;6.804;2023-01-31T12:59:55;101514.78;;;23.14;34.74
10712;BME280;5407;51.234;6.804;2023-01-31T13:02:34;101510.09;;;23.15;34.91
10712;BME280;5407;51.234;6.804;2023-01-31T13:05:10;101514.78;;;23.14;34.71
10712;BME280;5407;51.234;6.804;2023-01-31T13:07:42;101522.69;;;23.12;34.90
10712;BME280;5407;51.234;6.804;2023-01-31T13:10:25;101523.06;;;23.14;34.85
10712;BME280;5407;51.234;6.804;2023-01-31T13:12:57;101523.47;;;23.13;34.94
10712;BME280;5407;51.234;6.804;2023-01-31T13:15:30;101520.72;;;23.13;34.98
10712;BME280;5407;51.234;6.804;2023-01-31T13:18:04;101515.59;;;23.15;34.97
10712;BME280;5407;51.234;6.804;2023-01-31T13:20:35;101515.59;;;23.15;34.76
10712;BME280;5407;51.234;6.804;2023-01-31T13:23:08;101519.53;;;23.14;34.68